aviador You're here:

ZBTJ Decoded Metar

TIANJIN in CHINA
Report Time2017-11-25 05:30:00
UTC Time2017-11-25 05:36:12
Flight Rules vfr VFR
WindVRB at 2 kt
Visibility9999 m
Phenomena:N/A
Clouds:N/A
Expected CloudBase > 7,600 ft AGL from Temp-Dew spread
CeilingNone
Temp09°C (ISA -6)
Dew Point-10°C (25% RH)
AAT5.2°C
QNH1018 hPa
Density Alt-833 ft
Elevation10 ft
Report Wrong Elevation
Raw Report
METAR ZBTJ 250530Z VRB01MPS CAVOK 09/M10 Q1018 NOSIG=

Extra information for ZBTJ:More info

Metar Taf Metar & Taf Last 4 Metars F.Rules Stats Wind Profile Meteogram Temp Stats Airport Information Weather charts Add Link Nearby VenuesMetar ALERT Operation Metar Decoded Social comments